Time;durP1;ratioP1;P1;durP2;ratioP2;P2;SDS_P1;SDS_P2;PMS_P1;PMS_P2;Temp;Humidity;BMP_temperature;BMP_pressure;BME280_temperature;BME280_humidity;BME280_pressure;Samples;Min_cycle;Max_cycle;Signal;HPM_P1;HPM_P2
2021/01/15 00:01:40;;;;;;;4.03;1.00;;;1.00;65.40;;;;;;5031785;28;20026;-56
2021/01/15 00:04:06;;;;;;;6.88;1.70;;;1.00;66.60;;;;;;5029553;28;20338;-55
2021/01/15 00:06:32;;;;;;;4.88;1.35;;;0.90;71.00;;;;;;5031244;28;20037;-58
2021/01/15 00:08:58;;;;;;;7.93;2.30;;;0.80;71.50;;;;;;5029989;28;20040;-56
2021/01/15 00:11:26;;;;;;;7.60;1.52;;;0.80;73.40;;;;;;5029000;28;20034;-55
2021/01/15 00:13:53;;;;;;;5.53;1.65;;;0.60;74.60;;;;;;5031599;28;20057;-56
2021/01/15 00:16:26;;;;;;;4.22;1.20;;;0.50;72.60;;;;;;5030061;28;20352;-58
2021/01/15 00:18:53;;;;;;;3.95;1.23;;;0.40;73.90;;;;;;5011309;28;20374;-57
2021/01/15 00:21:26;;;;;;;4.97;1.27;;;0.40;72.60;;;;;;5029981;28;20270;-57
2021/01/15 00:23:57;;;;;;;5.25;1.20;;;0.40;73.30;;;;;;5031106;28;20033;-59
2021/01/15 00:26:28;;;;;;;3.30;1.02;;;0.40;71.80;;;;;;5014299;28;20700;-56
2021/01/15 00:28:54;;;;;;;5.10;1.17;;;0.40;72.50;;;;;;5031482;28;20037;-57
2021/01/15 00:31:30;;;;;;;3.70;1.27;;;0.40;71.60;;;;;;5029459;28;20512;-56
2021/01/15 00:33:56;;;;;;;6.72;1.25;;;0.30;75.30;;;;;;5031068;28;20049;-56
2021/01/15 00:36:22;;;;;;;5.53;1.48;;;0.30;75.70;;;;;;5029572;28;20033;-56
2021/01/15 00:38:51;;;;;;;15.60;4.20;;;0.30;79.10;;;;;;5030981;28;20485;-55
2021/01/15 00:41:22;;;;;;;17.30;4.25;;;0.10;80.70;;;;;;5026246;28;20036;-55
2021/01/15 00:43:48;;;;;;;8.13;2.70;;;0.00;82.00;;;;;;5030499;28;20053;-56
2021/01/15 00:46:27;;;;;;;5.43;1.55;;;-0.20;84.50;;;;;;5030090;28;20049;-57
2021/01/15 00:48:54;;;;;;;8.63;2.08;;;-0.20;86.10;;;;;;5030630;28;20037;-56
2021/01/15 00:51:19;;;;;;;5.13;1.55;;;-0.20;88.40;;;;;;5026864;28;20041;-58
2021/01/15 00:53:51;;;;;;;4.55;1.27;;;-0.30;91.40;;;;;;5029549;28;20160;-59
2021/01/15 00:56:21;;;;;;;3.97;1.00;;;-0.20;91.40;;;;;;5011181;28;20123;-59
2021/01/15 00:58:51;;;;;;;2.35;0.82;;;-0.30;93.00;;;;;;5029550;28;20377;-57
2021/01/15 01:01:22;;;;;;;6.22;0.90;;;-0.40;93.40;;;;;;5029215;28;20207;-57
2021/01/15 01:03:48;;;;;;;2.20;0.60;;;-0.40;93.50;;;;;;5030479;28;20435;-56
2021/01/15 01:06:16;;;;;;;3.65;0.85;;;-0.40;90.30;;;;;;5029046;28;20033;-55
2021/01/15 01:08:42;;;;;;;4.00;0.60;;;-0.30;93.00;;;;;;5030377;28;20435;-56
2021/01/15 01:11:30;;;;;;;1.73;0.50;;;-0.30;92.50;;;;;;5028592;28;20048;-55
2021/01/15 01:13:57;;;;;;;2.35;0.70;;;-0.30;92.70;;;;;;5026891;28;20037;-58
2021/01/15 01:16:25;;;;;;;4.13;0.63;;;-0.30;92.40;;;;;;5030448;28;20505;-56
2021/01/15 01:18:51;;;;;;;4.85;1.60;;;-0.40;92.80;;;;;;5029193;28;20040;-56
2021/01/15 01:21:17;;;;;;;3.80;0.82;;;-0.50;91.10;;;;;;5028563;28;20381;-56
2021/01/15 01:23:43;;;;;;;2.38;0.63;;;-0.40;92.30;;;;;;5028096;28;20048;-55
2021/01/15 01:26:10;;;;;;;4.68;1.27;;;-0.40;94.10;;;;;;5028702;28;20035;-58
2021/01/15 01:28:36;;;;;;;3.75;1.33;;;-0.40;91.90;;;;;;5030303;28;20036;-53
2021/01/15 01:31:02;;;;;;;2.45;1.15;;;-0.40;94.80;;;;;;5028760;28;20036;-55
2021/01/15 01:33:31;;;;;;;5.47;1.17;;;-0.40;98.30;;;;;;5029773;28;20048;-53
2021/01/15 01:35:56;;;;;;;3.85;1.20;;;-0.50;94.60;;;;;;5027418;28;20037;-55
2021/01/15 01:38:22;;;;;;;5.50;1.23;;;-0.60;96.80;;;;;;5029701;28;20025;-58
2021/01/15 01:40:48;;;;;;;3.08;0.80;;;-0.50;94.70;;;;;;5028424;28;20055;-58
2021/01/15 01:43:14;;;;;;;3.08;0.93;;;-0.50;96.90;;;;;;5027977;28;20065;-55
2021/01/15 01:45:40;;;;;;;2.70;0.70;;;-0.50;97.20;;;;;;5028685;28;20353;-55
2021/01/15 01:48:07;;;;;;;4.18;0.80;;;-0.70;95.90;;;;;;5029726;28;20120;-56
2021/01/15 01:50:34;;;;;;;4.50;1.13;;;-0.70;96.40;;;;;;5031390;28;20163;-55
2021/01/15 01:53:04;;;;;;;3.83;1.33;;;-0.60;97.90;;;;;;5032439;28;20046;-55
2021/01/15 01:55:34;;;;;;;4.03;0.90;;;-0.60;98.70;;;;;;5028806;28;20389;-55
2021/01/15 01:58:00;;;;;;;4.30;0.93;;;-0.70;97.80;;;;;;5028336;28;20041;-57
2021/01/15 02:00:27;;;;;;;3.25;1.27;;;-0.70;97.40;;;;;;5027364;28;20044;-57
2021/01/15 02:02:53;;;;;;;4.78;0.52;;;-0.70;95.60;;;;;;5026573;28;20041;-53
2021/01/15 02:05:19;;;;;;;4.03;1.02;;;-0.60;94.00;;;;;;5028346;28;20033;-56
2021/01/15 02:07:44;;;;;;;6.00;1.20;;;-0.50;93.90;;;;;;5028996;28;20035;-57
2021/01/15 02:10:40;;;;;;;2.90;0.90;;;-0.40;94.00;;;;;;5028304;28;20084;-56
2021/01/15 02:13:30;;;;;;;3.63;0.80;;;-0.50;95.50;;;;;;5028330;28;20208;-56
2021/01/15 02:16:22;;;;;;;3.92;0.70;;;-0.60;97.90;;;;;;5028156;28;20037;-56
2021/01/15 02:18:56;;;;;;;2.38;0.75;;;-0.70;97.10;;;;;;5020922;28;20423;-55
2021/01/15 02:21:42;;;;;;;2.88;0.63;;;-0.80;97.80;;;;;;5027135;28;20079;-57
2021/01/15 02:24:33;;;;;;;3.53;0.63;;;-0.80;99.90;;;;;;5029538;28;20033;-56
2021/01/15 02:27:23;;;;;;;2.88;0.65;;;-0.90;99.60;;;;;;5027013;28;20689;-55
2021/01/15 02:30:36;;;;;;;4.97;0.80;;;-0.90;97.60;;;;;;5028071;28;21430;-57
2021/01/15 02:33:33;;;;;;;2.65;0.55;;;-0.90;98.50;;;;;;4967255;28;20379;-57
2021/01/15 02:36:30;;;;;;;3.22;1.05;;;-0.90;99.90;;;;;;4965658;28;20038;-57
2021/01/15 02:39:15;;;;;;;3.70;0.85;;;-0.90;99.90;;;;;;4967265;28;20484;-52
2021/01/15 02:41:42;;;;;;;3.78;1.23;;;-0.90;99.90;;;;;;4843022;22;20895;-56
2021/01/15 02:44:12;;;;;;;5.10;0.80;;;-0.70;99.90;;;;;;5007802;28;20077;-56
2021/01/15 02:46:57;;;;;;;4.88;0.70;;;-0.60;99.90;;;;;;5009458;28;20084;-56
2021/01/15 02:49:23;;;;;;;2.42;0.70;;;-0.60;99.90;;;;;;5009325;28;20037;-55
2021/01/15 02:51:50;;;;;;;9.93;0.93;;;-0.60;99.90;;;;;;5008958;28;20037;-55
2021/01/15 02:54:16;;;;;;;4.15;1.05;;;-0.60;99.90;;;;;;5009009;28;20037;-54
2021/01/15 02:56:42;;;;;;;2.53;0.70;;;-0.60;99.90;;;;;;5009014;28;20434;-56
2021/01/15 02:59:10;;;;;;;2.95;0.60;;;-0.60;99.90;;;;;;5009011;28;20120;-52
2021/01/15 03:01:54;;;;;;;3.05;0.68;;;-0.60;99.90;;;;;;5009095;28;20026;-57
2021/01/15 03:04:26;;;;;;;4.03;1.15;;;-0.60;99.90;;;;;;5008993;28;20506;-57
2021/01/15 03:07:05;;;;;;;2.85;0.80;;;-0.50;99.90;;;;;;5008868;28;20026;-55
2021/01/15 03:09:36;;;;;;;3.15;0.80;;;-0.40;99.90;;;;;;5008965;28;20095;-51
2021/01/15 03:12:04;;;;;;;2.72;0.73;;;-0.40;99.90;;;;;;5008819;28;20041;-55
2021/01/15 03:14:31;;;;;;;2.17;0.82;;;-0.40;99.90;;;;;;5009200;28;20038;-55
2021/01/15 03:16:57;;;;;;;4.70;0.70;;;-0.40;99.90;;;;;;5009063;28;20113;-58
2021/01/15 03:19:23;;;;;;;2.40;0.75;;;-0.50;99.90;;;;;;5009024;28;20494;-54
2021/01/15 03:21:50;;;;;;;2.60;0.60;;;-0.40;99.90;;;;;;5008734;28;20173;-56
2021/01/15 03:24:17;;;;;;;2.30;0.60;;;-0.50;99.90;;;;;;5008928;28;20057;-56
2021/01/15 03:26:45;;;;;;;3.42;0.45;;;-0.50;99.90;;;;;;5008896;28;20093;-54
2021/01/15 03:29:13;;;;;;;2.42;0.70;;;-0.40;99.90;;;;;;5008910;28;20072;-56
2021/01/15 03:31:42;;;;;;;2.80;0.50;;;-0.40;99.90;;;;;;5008526;28;20496;-57
2021/01/15 03:34:09;;;;;;;3.10;0.90;;;-0.30;99.90;;;;;;5008604;28;20053;-55
2021/01/15 03:36:35;;;;;;;3.67;0.93;;;-0.30;99.90;;;;;;5008691;28;20033;-54
2021/01/15 03:39:02;;;;;;;3.53;0.93;;;-0.20;99.90;;;;;;5008678;28;20508;-56
2021/01/15 03:41:28;;;;;;;3.50;0.82;;;-0.20;99.90;;;;;;5008810;28;20413;-55
2021/01/15 03:43:54;;;;;;;2.92;0.65;;;-0.10;99.90;;;;;;5008388;28;20460;-52
2021/01/15 03:46:23;;;;;;;4.90;0.85;;;-0.10;99.90;;;;;;5008519;28;20078;-54
2021/01/15 03:48:48;;;;;;;3.72;1.00;;;-0.10;99.90;;;;;;5008492;28;20539;-55
2021/01/15 03:51:14;;;;;;;3.40;0.90;;;-0.10;99.90;;;;;;5011427;28;20029;-55
2021/01/15 03:53:44;;;;;;;6.03;1.30;;;0.00;99.90;;;;;;5012039;28;20374;-56
2021/01/15 03:56:10;;;;;;;2.95;0.95;;;0.00;99.90;;;;;;5008614;28;20358;-57
2021/01/15 03:58:48;;;;;;;3.20;0.68;;;0.00;99.90;;;;;;5008551;28;20038;-57
2021/01/15 04:01:15;;;;;;;2.55;0.52;;;-0.10;99.90;;;;;;5008453;28;20030;-57
2021/01/15 04:03:40;;;;;;;4.43;0.77;;;-0.20;99.90;;;;;;5008454;28;20049;-58
2021/01/15 04:06:06;;;;;;;3.08;0.80;;;-0.20;99.90;;;;;;5009863;28;20127;-58
2021/01/15 04:08:32;;;;;;;2.88;0.70;;;-0.20;99.90;;;;;;5012641;28;20070;-56
2021/01/15 04:10:58;;;;;;;2.58;0.65;;;-0.10;99.90;;;;;;5011863;28;20121;-55
2021/01/15 04:13:23;;;;;;;4.55;0.90;;;-0.10;99.90;;;;;;5011785;28;20034;-55
2021/01/15 04:15:49;;;;;;;2.25;0.65;;;-0.10;99.90;;;;;;5011817;28;20040;-54
2021/01/15 04:18:16;;;;;;;3.90;0.60;;;0.00;99.90;;;;;;5012103;28;20034;-58
2021/01/15 04:20:41;;;;;;;4.38;0.88;;;0.00;99.90;;;;;;5011673;28;20084;-58
2021/01/15 04:23:07;;;;;;;2.58;0.90;;;0.00;99.90;;;;;;5011767;28;20034;-58
2021/01/15 04:25:33;;;;;;;3.40;0.82;;;-0.10;99.90;;;;;;5011774;28;20066;-55
2021/01/15 04:28:02;;;;;;;2.13;0.80;;;-0.10;99.90;;;;;;5011522;28;20088;-58
2021/01/15 04:30:28;;;;;;;6.00;0.75;;;-0.10;99.90;;;;;;5011859;28;20068;-57
2021/01/15 04:32:57;;;;;;;5.38;1.00;;;-0.10;99.90;;;;;;5011305;28;20042;-57
2021/01/15 04:35:23;;;;;;;3.60;1.10;;;-0.10;99.90;;;;;;5011617;28;20034;-54
2021/01/15 04:37:48;;;;;;;3.42;1.17;;;-0.10;99.90;;;;;;5011509;28;20105;-57
2021/01/15 04:40:15;;;;;;;7.22;1.67;;;-0.10;99.90;;;;;;4993562;28;20189;-55
2021/01/15 04:42:44;;;;;;;3.38;1.15;;;0.00;99.90;;;;;;5011045;28;20057;-54
2021/01/15 04:45:17;;;;;;;4.70;0.95;;;0.00;99.90;;;;;;5011498;28;20385;-58
2021/01/15 04:47:45;;;;;;;4.45;1.13;;;0.10;99.90;;;;;;5011237;28;20493;-58
2021/01/15 04:50:12;;;;;;;4.75;1.48;;;0.10;99.90;;;;;;5011179;28;20040;-58
2021/01/15 04:52:47;;;;;;;4.80;1.88;;;0.10;99.90;;;;;;5011110;28;20112;-57
2021/01/15 04:55:21;;;;;;;4.40;1.17;;;0.10;99.90;;;;;;5010944;28;20037;-57
2021/01/15 04:57:49;;;;;;;4.60;1.45;;;0.10;99.90;;;;;;5011274;28;20040;-52
2021/01/15 05:00:23;;;;;;;3.90;1.85;;;0.20;99.90;;;;;;5011081;28;20525;-55
2021/01/15 05:02:49;;;;;;;6.10;1.90;;;0.20;99.90;;;;;;5010920;28;20030;-55
2021/01/15 05:05:19;;;;;;;11.10;2.15;;;0.30;99.90;;;;;;5010919;28;20038;-55
2021/01/15 05:08:06;;;;;;;7.30;2.42;;;0.20;99.90;;;;;;5010998;28;20037;-56
2021/01/15 05:10:40;;;;;;;8.80;2.70;;;0.20;99.90;;;;;;5011028;28;20038;-57
2021/01/15 05:13:08;;;;;;;7.22;2.85;;;0.30;99.90;;;;;;5010759;28;20379;-57
2021/01/15 05:15:36;;;;;;;8.43;3.05;;;0.40;99.90;;;;;;5010685;28;20494;-58
2021/01/15 05:18:06;;;;;;;13.60;3.42;;;0.30;99.90;;;;;;5009435;28;20044;-56
2021/01/15 05:20:32;;;;;;;8.15;3.72;;;0.40;99.90;;;;;;5010794;28;20143;-57
2021/01/15 05:23:01;;;;;;;10.88;3.33;;;0.40;99.90;;;;;;5010717;28;20045;-56
2021/01/15 05:25:34;;;;;;;9.52;3.72;;;0.40;99.90;;;;;;5010478;28;20030;-57
2021/01/15 05:28:00;;;;;;;11.32;4.13;;;0.40;99.90;;;;;;5010712;28;20038;-54
2021/01/15 05:30:28;;;;;;;9.20;2.60;;;0.40;99.90;;;;;;5010337;28;20493;-54
2021/01/15 05:32:56;;;;;;;6.45;2.75;;;0.40;99.90;;;;;;5007012;28;20042;-58
2021/01/15 05:35:37;;;;;;;12.30;3.80;;;0.40;99.90;;;;;;5010603;28;20128;-54
2021/01/15 05:38:03;;;;;;;5.55;2.58;;;0.40;99.90;;;;;;5008311;28;20033;-53
2021/01/15 05:40:38;;;;;;;8.57;3.53;;;0.40;99.90;;;;;;5010549;28;20105;-54
2021/01/15 05:43:05;;;;;;;6.80;2.50;;;0.40;99.90;;;;;;5008918;28;20128;-58
2021/01/15 05:45:31;;;;;;;5.70;2.20;;;0.40;99.90;;;;;;5010553;28;20083;-57
2021/01/15 05:47:57;;;;;;;5.82;2.20;;;0.50;99.40;;;;;;5009027;28;20493;-55
2021/01/15 05:50:37;;;;;;;5.72;2.15;;;0.50;99.90;;;;;;5010250;28;20076;-56
2021/01/15 05:53:03;;;;;;;8.60;2.90;;;0.50;99.90;;;;;;5004683;28;20657;-56
2021/01/15 05:55:29;;;;;;;6.93;2.45;;;0.50;99.90;;;;;;5006888;28;20213;-56
2021/01/15 05:57:55;;;;;;;7.63;2.45;;;0.50;99.90;;;;;;5009172;28;20066;-58
2021/01/15 06:00:41;;;;;;;8.60;2.75;;;0.50;99.90;;;;;;5008392;28;20648;-58
2021/01/15 06:03:08;;;;;;;5.38;2.45;;;0.50;99.90;;;;;;5008002;28;20045;-58
2021/01/15 06:05:35;;;;;;;9.77;3.30;;;0.50;99.90;;;;;;5012700;28;20084;-57
2021/01/15 06:08:01;;;;;;;6.18;2.75;;;0.50;99.90;;;;;;5009050;28;20026;-56
2021/01/15 06:10:28;;;;;;;8.45;3.20;;;0.50;99.90;;;;;;4991246;28;20030;-59
2021/01/15 06:12:54;;;;;;;9.18;3.08;;;0.50;99.90;;;;;;5008606;28;20048;-59
2021/01/15 06:15:20;;;;;;;8.60;2.38;;;0.50;99.90;;;;;;5009844;28;20181;-59
2021/01/15 06:17:50;;;;;;;9.57;2.63;;;0.50;99.90;;;;;;5008521;28;20034;-54
2021/01/15 06:20:22;;;;;;;5.85;2.22;;;0.40;99.90;;;;;;5008458;28;20117;-56
2021/01/15 06:22:51;;;;;;;5.82;2.47;;;0.40;99.90;;;;;;5009330;28;20036;-56
2021/01/15 06:25:29;;;;;;;6.88;2.92;;;0.30;99.90;;;;;;5008693;28;20045;-57
2021/01/15 06:27:57;;;;;;;9.07;2.92;;;0.30;99.90;;;;;;5007108;28;20045;-55
2021/01/15 06:30:24;;;;;;;6.88;3.13;;;0.40;99.90;;;;;;5008125;28;20044;-57
2021/01/15 06:32:50;;;;;;;9.20;3.40;;;0.50;99.90;;;;;;5008403;28;20340;-55
2021/01/15 06:35:35;;;;;;;9.27;2.60;;;0.50;99.90;;;;;;5009284;28;20041;-56
2021/01/15 06:38:25;;;;;;;9.25;3.10;;;0.50;99.90;;;;;;5008150;28;20042;-57
2021/01/15 06:40:52;;;;;;;5.57;2.83;;;0.50;99.90;;;;;;5007990;28;20515;-58
2021/01/15 06:43:17;;;;;;;8.15;3.20;;;0.50;99.90;;;;;;5006255;28;20089;-54
2021/01/15 06:45:48;;;;;;;7.55;3.25;;;0.50;99.90;;;;;;5008970;28;20057;-59
2021/01/15 06:48:15;;;;;;;11.25;2.90;;;0.50;99.90;;;;;;5008026;28;20138;-57
2021/01/15 06:50:44;;;;;;;7.32;2.45;;;0.60;99.90;;;;;;5007711;28;20152;-56
2021/01/15 06:53:30;;;;;;;9.73;3.22;;;0.60;99.90;;;;;;5007930;28;20088;-54
2021/01/15 06:55:57;;;;;;;8.23;3.45;;;0.70;99.90;;;;;;5007898;28;20429;-57
2021/01/15 06:58:31;;;;;;;10.65;4.25;;;0.80;99.90;;;;;;5007990;28;20793;-55
2021/01/15 07:01:15;;;;;;;11.07;4.32;;;0.80;99.90;;;;;;5006676;28;20496;-57
2021/01/15 07:04:02;;;;;;;11.82;4.28;;;0.70;99.90;;;;;;5009198;28;20045;-57
2021/01/15 07:06:29;;;;;;;11.50;4.00;;;0.70;99.90;;;;;;5007893;28;20048;-57
2021/01/15 07:08:57;;;;;;;10.95;4.80;;;0.60;99.90;;;;;;5009137;28;20164;-58
2021/01/15 07:11:25;;;;;;;8.55;3.50;;;0.60;99.90;;;;;;5003952;28;20968;-57
2021/01/15 07:13:58;;;;;;;9.15;4.28;;;0.60;99.90;;;;;;5009041;28;20537;-58
2021/01/15 07:16:51;;;;;;;14.63;4.15;;;0.60;99.90;;;;;;5007660;28;20118;-52
2021/01/15 07:19:19;;;;;;;9.02;3.85;;;0.60;99.90;;;;;;5007392;28;20127;-57
2021/01/15 07:22:00;;;;;;;9.18;3.38;;;0.60;99.90;;;;;;5006890;28;20091;-58
2021/01/15 07:24:32;;;;;;;8.25;3.35;;;0.60;99.90;;;;;;5001649;28;20578;-58
2021/01/15 07:26:59;;;;;;;10.30;3.78;;;0.60;99.90;;;;;;5007518;28;20381;-56
2021/01/15 07:29:26;;;;;;;10.23;3.65;;;0.50;99.90;;;;;;5008102;28;20045;-56
2021/01/15 07:32:29;;;;;;;8.90;3.97;;;0.50;99.90;;;;;;5007865;28;20030;-56
2021/01/15 07:34:58;;;;;;;8.52;3.60;;;0.50;99.90;;;;;;5002417;28;20409;-56
2021/01/15 07:37:26;;;;;;;10.00;3.47;;;0.50;99.90;;;;;;5005632;28;20022;-57
2021/01/15 07:40:04;;;;;;;11.25;4.18;;;0.50;99.90;;;;;;5006308;28;20034;-59
2021/01/15 07:42:43;;;;;;;16.73;5.60;;;0.50;99.90;;;;;;5010067;28;20376;-56
2021/01/15 07:45:51;;;;;;;15.48;7.30;;;0.50;99.90;;;;;;5009677;28;20046;-55
2021/01/15 07:48:16;;;;;;;22.92;7.97;;;0.60;99.90;;;;;;5008989;28;20037;-55
2021/01/15 07:50:44;;;;;;;21.17;8.48;;;0.70;99.90;;;;;;5010106;28;20375;-57
2021/01/15 07:53:09;;;;;;;20.48;8.93;;;0.60;99.90;;;;;;5010602;28;20105;-57
2021/01/15 07:55:45;;;;;;;19.65;8.77;;;0.70;99.90;;;;;;5011974;28;20390;-57
2021/01/15 07:58:19;;;;;;;17.60;8.77;;;0.80;99.90;;;;;;5011471;28;20397;-57
2021/01/15 08:00:45;;;;;;;20.75;8.27;;;0.80;99.90;;;;;;4992791;28;20041;-54
2021/01/15 08:03:12;;;;;;;18.90;8.82;;;1.00;99.90;;;;;;4996475;28;20033;-56
2021/01/15 08:05:38;;;;;;;15.52;6.80;;;1.00;99.90;;;;;;5009563;28;20410;-58
2021/01/15 08:08:05;;;;;;;23.08;8.73;;;0.90;99.90;;;;;;5012234;28;20037;-55
2021/01/15 08:10:31;;;;;;;26.10;8.48;;;1.00;99.90;;;;;;5001587;28;20493;-58
2021/01/15 08:13:03;;;;;;;22.15;8.63;;;1.00;99.90;;;;;;4990382;28;20096;-58
2021/01/15 08:15:31;;;;;;;16.42;6.38;;;1.00;99.90;;;;;;4997330;28;20042;-57
2021/01/15 08:18:01;;;;;;;19.50;6.45;;;1.10;99.60;;;;;;4994543;28;20389;-55
2021/01/15 08:20:27;;;;;;;13.70;6.10;;;1.10;99.50;;;;;;5012354;28;20036;-53
2021/01/15 08:22:53;;;;;;;15.15;5.35;;;1.20;99.00;;;;;;5013818;28;21183;-56
2021/01/15 08:25:27;;;;;;;10.68;4.30;;;1.20;98.40;;;;;;5008358;28;20038;-56
2021/01/15 08:27:54;;;;;;;8.80;4.18;;;1.30;98.00;;;;;;5009988;28;20054;-55
2021/01/15 08:30:20;;;;;;;9.85;4.22;;;1.30;97.60;;;;;;4996930;28;20040;-58
2021/01/15 08:32:45;;;;;;;10.50;4.25;;;1.40;96.60;;;;;;4993293;28;20042;-55
2021/01/15 08:35:26;;;;;;;6.35;2.47;;;1.50;96.00;;;;;;5009835;28;20042;-56
2021/01/15 08:37:59;;;;;;;5.13;2.08;;;1.60;94.80;;;;;;5009255;28;20128;-59
2021/01/15 08:40:27;;;;;;;7.90;2.95;;;1.60;92.90;;;;;;5010924;28;20042;-58
2021/01/15 08:42:57;;;;;;;6.57;2.65;;;1.70;93.80;;;;;;5007691;28;20050;-58
2021/01/15 08:45:25;;;;;;;9.35;2.17;;;1.70;94.00;;;;;;5022388;28;20397;-58
2021/01/15 08:47:52;;;;;;;6.00;2.30;;;1.70;92.40;;;;;;5030880;28;20484;-58
2021/01/15 08:50:18;;;;;;;8.07;2.22;;;1.90;90.60;;;;;;5031103;28;20037;-58
2021/01/15 08:52:45;;;;;;;6.50;1.83;;;1.90;88.70;;;;;;5030612;28;20041;-56
2021/01/15 08:55:13;;;;;;;5.10;1.73;;;2.00;89.30;;;;;;5029162;28;20373;-57
2021/01/15 08:57:39;;;;;;;9.18;2.50;;;2.00;89.70;;;;;;5003083;28;20044;-57
2021/01/15 09:00:12;;;;;;;7.18;2.70;;;2.10;89.50;;;;;;5001971;28;20029;-55
2021/01/15 09:02:40;;;;;;;6.22;2.03;;;2.10;87.60;;;;;;5001376;28;20390;-53
2021/01/15 09:05:20;;;;;;;9.13;2.05;;;2.10;87.20;;;;;;5010897;28;20041;-57
2021/01/15 09:07:48;;;;;;;4.55;1.13;;;2.10;87.20;;;;;;5007580;28;20057;-53
2021/01/15 09:10:18;;;;;;;5.72;1.10;;;2.30;85.20;;;;;;5008882;28;20040;-57
2021/01/15 09:12:46;;;;;;;4.40;1.05;;;2.30;84.60;;;;;;5002525;28;20034;-57
2021/01/15 09:15:20;;;;;;;4.97;0.80;;;2.30;82.50;;;;;;5009572;28;20117;-58
2021/01/15 09:17:46;;;;;;;4.75;1.27;;;2.40;79.20;;;;;;5009722;28;20034;-57
2021/01/15 09:20:14;;;;;;;8.10;1.30;;;2.40;81.50;;;;;;5009649;28;20386;-56
2021/01/15 09:22:39;;;;;;;2.42;0.50;;;2.40;80.80;;;;;;5009401;28;20030;-57
2021/01/15 09:25:06;;;;;;;2.25;0.65;;;2.50;80.70;;;;;;5009927;28;20040;-57
2021/01/15 09:27:31;;;;;;;1.75;0.60;;;2.50;79.80;;;;;;5008291;28;20120;-57
2021/01/15 09:29:57;;;;;;;2.05;0.40;;;2.60;77.90;;;;;;5009629;28;20038;-55
2021/01/15 09:32:23;;;;;;;1.58;0.30;;;2.70;76.40;;;;;;5008970;28;20489;-55
2021/01/15 09:34:48;;;;;;;1.50;0.40;;;2.80;73.30;;;;;;5005843;28;20521;-54
2021/01/15 09:37:14;;;;;;;2.88;0.50;;;2.90;74.40;;;;;;5008347;28;20419;-56
2021/01/15 09:39:40;;;;;;;1.48;0.45;;;2.90;74.60;;;;;;5008950;28;20046;-56
2021/01/15 09:42:06;;;;;;;1.92;0.45;;;3.00;71.90;;;;;;5006345;28;20037;-57
2021/01/15 09:44:32;;;;;;;2.40;0.85;;;3.10;72.60;;;;;;5010294;28;20050;-55
2021/01/15 09:47:03;;;;;;;1.48;0.45;;;3.10;72.80;;;;;;5008505;28;20088;-55
2021/01/15 09:49:32;;;;;;;3.88;0.60;;;3.20;72.60;;;;;;5009214;28;20382;-58
2021/01/15 09:51:59;;;;;;;2.20;0.30;;;3.20;70.70;;;;;;5008718;28;20456;-57
2021/01/15 09:54:24;;;;;;;1.45;0.30;;;3.20;72.30;;;;;;5010079;28;20033;-55
2021/01/15 09:56:51;;;;;;;1.67;0.50;;;3.20;69.30;;;;;;5006054;28;20034;-55
2021/01/15 09:59:17;;;;;;;0.80;0.30;;;3.20;68.10;;;;;;4990137;28;20034;-54
2021/01/15 10:01:47;;;;;;;1.17;0.40;;;3.30;68.80;;;;;;4998001;28;20141;-58
2021/01/15 10:04:14;;;;;;;0.85;0.20;;;3.40;70.50;;;;;;5009631;28;20085;-58
2021/01/15 10:06:42;;;;;;;0.70;0.20;;;3.50;66.60;;;;;;5008546;28;20493;-56
2021/01/15 10:09:09;;;;;;;0.73;0.30;;;3.60;67.50;;;;;;5009614;28;20092;-54
2021/01/15 10:11:40;;;;;;;1.10;0.30;;;3.60;67.30;;;;;;5006984;28;20083;-57
2021/01/15 10:14:08;;;;;;;1.73;0.28;;;3.70;66.30;;;;;;5009309;28;20099;-57
2021/01/15 10:16:47;;;;;;;1.50;0.50;;;3.70;64.90;;;;;;5005103;28;20417;-59
2021/01/15 10:19:13;;;;;;;0.88;0.20;;;3.80;65.40;;;;;;5007490;28;20043;-56
2021/01/15 10:21:39;;;;;;;1.00;0.20;;;3.70;65.60;;;;;;5005639;28;20469;-58
2021/01/15 10:24:07;;;;;;;0.98;0.30;;;3.80;63.90;;;;;;5000981;28;20061;-55
2021/01/15 10:26:34;;;;;;;1.20;0.40;;;3.90;63.50;;;;;;5003611;28;20091;-56
2021/01/15 10:29:12;;;;;;;1.17;0.30;;;3.90;64.90;;;;;;4989588;28;20057;-57
2021/01/15 10:31:44;;;;;;;1.48;0.40;;;3.90;65.00;;;;;;4999259;28;20119;-54
2021/01/15 10:34:11;;;;;;;1.00;0.20;;;3.90;64.70;;;;;;5005377;28;20083;-56
2021/01/15 10:36:40;;;;;;;0.70;0.30;;;3.90;63.00;;;;;;5006088;28;20026;-56
2021/01/15 10:39:05;;;;;;;0.40;0.13;;;3.90;62.90;;;;;;5005163;28;20088;-55
2021/01/15 10:41:38;;;;;;;0.88;0.20;;;3.90;60.80;;;;;;5008423;28;20421;-52
2021/01/15 10:44:06;;;;;;;1.13;0.20;;;4.00;62.00;;;;;;5004133;28;20050;-56
2021/01/15 10:46:32;;;;;;;0.80;0.20;;;4.00;62.60;;;;;;4989680;28;20145;-54
2021/01/15 10:48:59;;;;;;;2.97;0.47;;;4.10;64.20;;;;;;4978098;28;20079;-56
2021/01/15 10:51:25;;;;;;;0.65;0.20;;;4.10;63.20;;;;;;4981368;28;20035;-54
2021/01/15 10:53:51;;;;;;;1.40;0.10;;;4.00;63.50;;;;;;4989184;28;20514;-54
2021/01/15 10:56:17;;;;;;;2.17;0.20;;;4.00;61.40;;;;;;4990405;28;20516;-58
2021/01/15 10:58:43;;;;;;;0.60;0.20;;;4.00;62.30;;;;;;4991284;28;20030;-56
2021/01/15 11:01:09;;;;;;;0.50;0.20;;;4.00;63.10;;;;;;4988525;28;20041;-56
2021/01/15 11:03:34;;;;;;;0.95;0.20;;;4.00;63.70;;;;;;4989312;28;20034;-56
2021/01/15 11:06:00;;;;;;;0.77;0.25;;;4.00;62.80;;;;;;4989357;28;20026;-56
2021/01/15 11:08:26;;;;;;;1.25;0.20;;;4.10;65.40;;;;;;4989180;28;20443;-56
2021/01/15 11:10:51;;;;;;;1.85;0.30;;;3.90;66.00;;;;;;4989563;28;20027;-56
2021/01/15 11:13:17;;;;;;;0.73;0.20;;;4.00;64.70;;;;;;4971606;28;20047;-57
2021/01/15 11:15:43;;;;;;;1.95;0.30;;;4.00;64.50;;;;;;4990159;28;20157;-57
2021/01/15 11:18:09;;;;;;;0.70;0.47;;;4.10;63.90;;;;;;4993150;28;20030;-57
2021/01/15 11:20:35;;;;;;;1.73;0.20;;;4.20;63.70;;;;;;4993488;28;20318;-56
2021/01/15 11:23:00;;;;;;;0.63;0.20;;;4.30;61.60;;;;;;4993101;28;20089;-56
2021/01/15 11:25:26;;;;;;;1.23;0.30;;;4.40;62.80;;;;;;4993338;28;20073;-56
2021/01/15 11:27:52;;;;;;;1.17;0.30;;;4.40;62.30;;;;;;4976335;28;20031;-53
2021/01/15 11:30:18;;;;;;;1.60;0.45;;;4.60;60.60;;;;;;4994567;28;20042;-57
2021/01/15 11:32:44;;;;;;;3.90;0.77;;;4.70;59.60;;;;;;4994098;28;20035;-57
2021/01/15 11:35:10;;;;;;;1.17;0.30;;;4.70;59.80;;;;;;4995569;28;20041;-57
2021/01/15 11:37:35;;;;;;;0.70;0.30;;;4.80;60.00;;;;;;4989546;28;20352;-55
2021/01/15 11:40:08;;;;;;;1.25;0.30;;;4.90;60.40;;;;;;4993066;28;20385;-55
2021/01/15 11:42:34;;;;;;;1.95;0.40;;;4.90;61.20;;;;;;4990525;28;20054;-56
2021/01/15 11:45:00;;;;;;;0.85;0.28;;;4.80;62.00;;;;;;4992326;28;20545;-58
2021/01/15 11:47:26;;;;;;;1.80;0.20;;;4.80;59.60;;;;;;4990264;28;20038;-56
2021/01/15 11:49:52;;;;;;;0.30;0.10;;;4.90;58.40;;;;;;4992730;28;20034;-58
2021/01/15 11:52:18;;;;;;;0.60;0.20;;;4.80;59.80;;;;;;4969724;28;20395;-55
2021/01/15 11:54:44;;;;;;;1.25;0.20;;;4.70;60.10;;;;;;4992549;28;20049;-57
2021/01/15 11:57:10;;;;;;;2.20;0.20;;;4.70;60.10;;;;;;4991486;28;20038;-52
2021/01/15 11:59:35;;;;;;;0.93;0.30;;;4.60;59.30;;;;;;4990385;28;20505;-57
2021/01/15 12:02:01;;;;;;;1.35;0.30;;;4.80;59.80;;;;;;4992452;28;20036;-57
2021/01/15 12:04:27;;;;;;;0.95;0.28;;;4.90;59.10;;;;;;4987155;28;20030;-53
2021/01/15 12:06:54;;;;;;;1.90;0.20;;;4.90;59.90;;;;;;4989774;28;20363;-55
2021/01/15 12:09:20;;;;;;;1.75;0.30;;;4.90;57.10;;;;;;4989877;28;20042;-56
2021/01/15 12:11:46;;;;;;;2.58;0.30;;;4.80;59.60;;;;;;4992895;28;20037;-55
2021/01/15 12:14:12;;;;;;;0.80;0.20;;;4.80;59.20;;;;;;4992847;28;20149;-57
2021/01/15 12:16:39;;;;;;;1.13;0.20;;;4.90;58.40;;;;;;4992206;28;20402;-56
2021/01/15 12:19:07;;;;;;;0.63;0.20;;;5.00;59.40;;;;;;4992264;28;20034;-56
2021/01/15 12:21:34;;;;;;;4.85;0.30;;;5.00;57.40;;;;;;4992135;28;20035;-57
2021/01/15 12:24:03;;;;;;;1.10;0.20;;;5.00;58.80;;;;;;4987985;28;20022;-53
2021/01/15 12:26:30;;;;;;;1.15;0.20;;;5.10;57.80;;;;;;4989907;28;20049;-56
2021/01/15 12:28:55;;;;;;;2.63;0.38;;;5.20;56.90;;;;;;4990837;28;20065;-56
2021/01/15 12:31:21;;;;;;;1.58;0.25;;;5.20;56.40;;;;;;4990213;28;20517;-57
2021/01/15 12:33:46;;;;;;;0.57;0.20;;;5.10;58.10;;;;;;4986504;28;20074;-56
2021/01/15 12:36:12;;;;;;;0.85;0.13;;;5.20;56.70;;;;;;4970616;28;20030;-55
2021/01/15 12:38:38;;;;;;;1.13;0.30;;;5.20;55.80;;;;;;4987778;28;20478;-60
2021/01/15 12:41:04;;;;;;;1.23;0.20;;;5.30;55.80;;;;;;4989182;28;20132;-56
2021/01/15 12:43:29;;;;;;;1.35;0.28;;;5.30;58.10;;;;;;4988582;28;20164;-57
2021/01/15 12:45:55;;;;;;;0.68;0.20;;;5.20;56.90;;;;;;4972840;28;20114;-51
2021/01/15 12:48:21;;;;;;;1.77;0.30;;;5.20;56.80;;;;;;4984834;28;20041;-55
2021/01/15 12:50:47;;;;;;;0.88;0.25;;;5.20;56.50;;;;;;4989575;28;20047;-54
2021/01/15 12:53:12;;;;;;;1.15;0.20;;;5.30;56.30;;;;;;4989399;28;20038;-55
2021/01/15 12:55:39;;;;;;;1.35;0.40;;;5.20;56.90;;;;;;4991502;28;20026;-55
2021/01/15 12:58:05;;;;;;;1.05;0.35;;;5.10;56.60;;;;;;4990351;28;20129;-58
2021/01/15 13:00:31;;;;;;;0.93;0.30;;;5.20;55.40;;;;;;4987557;28;20076;-55
2021/01/15 13:02:57;;;;;;;1.23;0.20;;;5.20;57.80;;;;;;4994872;28;20030;-55
2021/01/15 13:05:23;;;;;;;0.90;0.30;;;5.20;57.10;;;;;;4991108;28;20030;-56